createdAt,value
2019-02-17T00:01:43.677Z,99.90
2019-02-17T00:04:12.077Z,99.90
2019-02-17T00:06:40.487Z,99.90
2019-02-17T00:09:10.138Z,99.90
2019-02-17T00:11:38.539Z,99.90
2019-02-17T00:14:06.955Z,99.90
2019-02-17T00:16:35.432Z,99.90
2019-02-17T00:19:03.854Z,99.90
2019-02-17T00:21:32.241Z,99.90
2019-02-17T00:24:00.649Z,99.90
2019-02-17T00:26:29.041Z,99.90
2019-02-17T00:28:59.835Z,99.90
2019-02-17T00:31:27.919Z,99.90
2019-02-17T00:33:56.401Z,99.90
2019-02-17T00:36:24.812Z,99.90
2019-02-17T00:38:53.885Z,99.90
2019-02-17T00:41:22.296Z,99.90
2019-02-17T00:43:50.693Z,99.90
2019-02-17T00:46:19.097Z,99.90
2019-02-17T00:48:47.497Z,99.90
2019-02-17T00:51:15.966Z,99.90
2019-02-17T00:53:44.376Z,99.90
2019-02-17T00:56:12.791Z,99.90
2019-02-17T00:58:41.197Z,99.90
2019-02-17T01:01:09.784Z,99.90
2019-02-17T01:03:38.204Z,99.90
2019-02-17T01:06:06.603Z,99.90
2019-02-17T01:08:35.014Z,99.90
2019-02-17T01:11:03.475Z,99.90
2019-02-17T01:13:31.929Z,99.90
2019-02-17T01:16:00.336Z,99.90
2019-02-17T01:18:28.737Z,99.90
2019-02-17T01:20:57.126Z,99.90
2019-02-17T01:23:25.545Z,99.90
2019-02-17T01:25:53.947Z,99.90
2019-02-17T01:28:22.380Z,99.90
2019-02-17T01:30:50.783Z,99.90
2019-02-17T01:33:19.183Z,99.90
2019-02-17T01:35:47.667Z,99.90
2019-02-17T01:38:16.076Z,99.90
2019-02-17T01:40:44.504Z,99.90
2019-02-17T01:43:12.920Z,99.90
2019-02-17T01:45:41.331Z,99.90
2019-02-17T01:48:09.769Z,99.90
2019-02-17T01:50:38.240Z,99.90
2019-02-17T01:53:06.655Z,99.90
2019-02-17T01:55:35.050Z,99.90
2019-02-17T01:58:03.464Z,99.90
2019-02-17T02:00:31.865Z,99.90
2019-02-17T02:03:00.264Z,99.90
2019-02-17T02:05:28.978Z,99.90
2019-02-17T02:07:57.442Z,99.90
2019-02-17T02:10:25.935Z,99.90
2019-02-17T02:12:54.335Z,99.90
2019-02-17T02:15:22.742Z,99.90
2019-02-17T02:17:51.156Z,99.90
2019-02-17T02:20:19.558Z,99.90
2019-02-17T02:22:47.967Z,99.90
2019-02-17T02:25:16.371Z,99.90
2019-02-17T02:27:44.762Z,99.90
2019-02-17T02:30:13.834Z,99.90
2019-02-17T02:32:42.250Z,99.90
2019-02-17T02:35:10.646Z,99.90
2019-02-17T02:37:39.065Z,99.90
2019-02-17T02:40:08.131Z,99.90
2019-02-17T02:42:36.527Z,99.90
2019-02-17T02:45:07.678Z,99.90
2019-02-17T02:47:36.111Z,99.90
2019-02-17T02:50:07.521Z,99.90
2019-02-17T02:52:35.906Z,99.90
2019-02-17T02:55:04.666Z,99.90
2019-02-17T02:57:33.076Z,99.90
2019-02-17T03:00:01.477Z,99.90
2019-02-17T03:02:29.893Z,99.90
2019-02-17T03:04:58.307Z,99.90
2019-02-17T03:07:26.711Z,99.90
2019-02-17T03:09:55.118Z,99.90
2019-02-17T03:12:23.523Z,99.90
2019-02-17T03:14:51.947Z,99.90
2019-02-17T03:17:20.353Z,99.90
2019-02-17T03:19:48.776Z,99.90
2019-02-17T03:22:17.179Z,99.90
2019-02-17T03:24:45.595Z,99.90
2019-02-17T03:27:13.996Z,99.90
2019-02-17T03:29:42.411Z,99.90
2019-02-17T03:32:10.808Z,99.90
2019-02-17T03:34:39.223Z,99.90
2019-02-17T03:37:07.622Z,99.90
2019-02-17T03:39:36.033Z,99.90
2019-02-17T03:42:06.514Z,99.90
2019-02-17T03:44:34.898Z,99.90
2019-02-17T03:47:03.311Z,99.90
2019-02-17T03:49:31.797Z,99.90
2019-02-17T03:52:00.215Z,99.90
2019-02-17T03:54:28.630Z,99.90
2019-02-17T03:56:57.043Z,99.90
2019-02-17T03:59:25.470Z,99.90
2019-02-17T04:01:53.887Z,99.90
2019-02-17T04:04:22.290Z,99.90
2019-02-17T04:06:50.695Z,99.90
2019-02-17T04:09:19.121Z,99.90
2019-02-17T04:11:47.607Z,99.90
2019-02-17T04:14:16.026Z,99.90
2019-02-17T04:16:44.431Z,99.90
2019-02-17T04:19:12.845Z,99.90
2019-02-17T04:21:41.252Z,99.90
2019-02-17T04:24:09.679Z,99.90
2019-02-17T04:26:38.083Z,99.90
2019-02-17T04:29:06.511Z,99.90
2019-02-17T04:31:34.920Z,99.90
2019-02-17T04:34:03.420Z,99.90
2019-02-17T04:36:31.819Z,99.90
2019-02-17T04:39:00.250Z,99.90
2019-02-17T04:41:28.643Z,99.90
2019-02-17T04:43:57.068Z,99.90
2019-02-17T04:46:25.476Z,99.90
2019-02-17T04:48:53.890Z,99.90
2019-02-17T04:51:22.308Z,99.90
2019-02-17T04:53:50.989Z,99.90
2019-02-17T04:56:19.393Z,99.90
2019-02-17T04:58:47.807Z,99.90
2019-02-17T05:01:16.210Z,99.90
2019-02-17T05:03:44.647Z,99.90
2019-02-17T05:06:13.061Z,99.90
2019-02-17T05:08:41.495Z,99.90
2019-02-17T05:11:09.891Z,99.90
2019-02-17T05:13:38.325Z,99.90
2019-02-17T05:16:06.737Z,99.90
2019-02-17T05:18:35.149Z,99.90
2019-02-17T05:21:03.563Z,99.90
2019-02-17T05:23:32.004Z,99.90
2019-02-17T05:26:00.407Z,99.90
2019-02-17T05:28:28.806Z,99.90
2019-02-17T05:30:57.244Z,99.90
2019-02-17T05:33:25.645Z,99.90
2019-02-17T05:35:54.096Z,99.90
2019-02-17T05:38:22.508Z,99.90
2019-02-17T05:40:50.928Z,99.90
2019-02-17T05:43:19.351Z,99.90
2019-02-17T05:45:47.769Z,99.90
2019-02-17T05:48:16.197Z,99.90
2019-02-17T05:50:44.622Z,99.90
2019-02-17T05:53:13.006Z,99.90
2019-02-17T05:55:41.433Z,99.90
2019-02-17T05:58:09.866Z,99.90
2019-02-17T06:00:39.274Z,99.90
2019-02-17T06:03:07.654Z,99.90
2019-02-17T06:05:36.071Z,99.90
2019-02-17T06:08:04.479Z,99.90
2019-02-17T06:10:32.889Z,99.90
2019-02-17T06:13:01.311Z,99.90
2019-02-17T06:15:29.745Z,99.90
2019-02-17T06:17:58.154Z,99.90
2019-02-17T06:20:26.575Z,99.90
2019-02-17T06:22:54.973Z,99.90
2019-02-17T06:25:23.406Z,99.90
2019-02-17T06:27:51.807Z,99.90
2019-02-17T06:30:20.226Z,99.90
2019-02-17T06:32:48.706Z,99.90
2019-02-17T06:35:17.129Z,99.90
2019-02-17T06:37:45.546Z,99.90
2019-02-17T06:40:13.963Z,99.90
2019-02-17T06:42:42.372Z,99.90
2019-02-17T06:45:10.809Z,99.90
2019-02-17T06:47:39.217Z,99.90
2019-02-17T06:50:10.169Z,99.90
2019-02-17T06:52:38.904Z,99.90
2019-02-17T06:55:14.968Z,99.90
2019-02-17T06:57:43.393Z,99.90
2019-02-17T07:00:15.951Z,99.90
2019-02-17T07:02:44.358Z,99.90
2019-02-17T07:05:17.191Z,99.90
2019-02-17T07:07:45.625Z,99.90
2019-02-17T07:10:14.125Z,99.90
2019-02-17T07:12:42.736Z,99.90
2019-02-17T07:15:11.236Z,99.90
2019-02-17T07:17:39.660Z,99.90
2019-02-17T07:20:09.729Z,99.90
2019-02-17T07:22:38.327Z,99.90
2019-02-17T07:25:06.751Z,99.90
2019-02-17T07:27:35.162Z,99.90
2019-02-17T07:30:03.908Z,99.90
2019-02-17T07:32:32.322Z,99.90
2019-02-17T07:35:00.761Z,99.90
2019-02-17T07:37:33.436Z,99.90
2019-02-17T07:39:59.379Z,99.90
2019-02-17T07:42:27.808Z,99.90
2019-02-17T07:44:56.195Z,99.90
2019-02-17T07:47:24.611Z,99.90
2019-02-17T07:49:53.014Z,99.90
2019-02-17T07:52:21.427Z,99.90
2019-02-17T07:54:49.831Z,99.90
2019-02-17T07:57:18.243Z,99.90
2019-02-17T07:59:46.647Z,99.90
2019-02-17T08:02:15.063Z,99.90
2019-02-17T08:04:43.453Z,99.90
2019-02-17T08:07:11.873Z,99.90
2019-02-17T08:09:40.279Z,99.90
2019-02-17T08:12:08.682Z,99.90
2019-02-17T08:14:38.013Z,99.90
2019-02-17T08:17:06.493Z,99.90
2019-02-17T08:19:34.906Z,99.90
2019-02-17T08:22:03.336Z,99.90
2019-02-17T08:24:31.735Z,99.90
2019-02-17T08:27:00.136Z,99.90
2019-02-17T08:29:28.541Z,99.90
2019-02-17T08:31:56.960Z,99.90
2019-02-17T08:34:25.370Z,99.90
2019-02-17T08:36:53.786Z,99.90
2019-02-17T08:39:22.193Z,99.90
2019-02-17T08:41:50.602Z,99.90
2019-02-17T08:44:19.008Z,99.90
2019-02-17T08:46:47.423Z,99.90
2019-02-17T08:49:15.810Z,99.90
2019-02-17T08:51:44.227Z,99.50
2019-02-17T08:54:12.718Z,98.60
2019-02-17T08:56:41.123Z,98.20
2019-02-17T08:59:09.509Z,97.90
2019-02-17T09:01:40.360Z,97.70
2019-02-17T09:04:08.055Z,97.40
2019-02-17T09:06:36.480Z,97.30
2019-02-17T09:09:06.172Z,97.10
2019-02-17T09:11:34.585Z,96.10
2019-02-17T09:14:03.040Z,95.60
2019-02-17T09:16:31.491Z,94.60
2019-02-17T09:18:59.886Z,94.20
2019-02-17T09:21:28.316Z,93.90
2019-02-17T09:23:56.707Z,93.70
2019-02-17T09:26:25.113Z,93.50
2019-02-17T09:28:53.517Z,93.40
2019-02-17T09:31:21.919Z,93.10
2019-02-17T09:33:50.313Z,92.80
2019-02-17T09:36:18.719Z,92.60
2019-02-17T09:38:47.127Z,92.30
2019-02-17T09:41:15.514Z,92.00
2019-02-17T09:43:45.569Z,91.40
2019-02-17T09:46:14.134Z,91.10
2019-02-17T09:48:42.546Z,91.10
2019-02-17T09:51:10.943Z,90.60
2019-02-17T09:53:39.351Z,90.70
2019-02-17T09:56:07.737Z,90.10
2019-02-17T09:58:36.155Z,90.00
2019-02-17T10:01:04.551Z,88.50
2019-02-17T10:03:32.977Z,87.30
2019-02-17T10:06:01.371Z,85.80
2019-02-17T10:08:29.775Z,85.80
2019-02-17T10:10:58.174Z,85.70
2019-02-17T10:13:26.569Z,84.20
2019-02-17T10:15:54.969Z,83.60
2019-02-17T10:18:23.465Z,82.50
2019-02-17T10:20:51.860Z,80.90
2019-02-17T10:23:20.262Z,79.90
2019-02-17T10:25:48.680Z,78.60
2019-02-17T10:28:17.096Z,77.20
2019-02-17T10:30:47.070Z,76.70
2019-02-17T10:33:15.561Z,76.30
2019-02-17T10:35:43.963Z,74.70
2019-02-17T10:38:12.374Z,74.10
2019-02-17T10:40:40.781Z,72.40
2019-02-17T10:43:09.195Z,70.70
2019-02-17T10:45:37.601Z,70.70
2019-02-17T10:48:06.015Z,68.10
2019-02-17T10:50:34.417Z,67.30
2019-02-17T10:53:02.822Z,67.50
2019-02-17T10:55:31.232Z,66.60
2019-02-17T10:57:59.656Z,64.90
2019-02-17T11:00:29.902Z,64.70
2019-02-17T11:03:03.986Z,64.70
2019-02-17T11:05:32.386Z,63.20
2019-02-17T11:08:00.819Z,63.40
2019-02-17T11:10:29.203Z,62.40
2019-02-17T11:12:57.619Z,61.60
2019-02-17T11:15:26.019Z,61.00
2019-02-17T11:17:54.439Z,59.50
2019-02-17T11:20:22.845Z,60.00
2019-02-17T11:22:51.246Z,58.20
2019-02-17T11:25:19.670Z,58.20
2019-02-17T11:27:48.138Z,58.10
2019-02-17T11:30:19.279Z,57.70
2019-02-17T11:32:57.186Z,57.40
2019-02-17T11:35:17.874Z,57.20
2019-02-17T11:37:46.352Z,56.80
2019-02-17T11:40:15.544Z,56.60
2019-02-17T11:42:43.943Z,56.70
2019-02-17T11:45:15.481Z,56.30
2019-02-17T11:47:43.884Z,56.00
2019-02-17T11:50:12.663Z,56.30
2019-02-17T11:52:41.054Z,56.10
2019-02-17T11:55:12.285Z,55.70
2019-02-17T11:57:40.698Z,55.60
2019-02-17T12:00:20.985Z,54.70
2019-02-17T12:02:49.379Z,54.40
2019-02-17T12:05:17.808Z,54.70
2019-02-17T12:07:46.213Z,54.30
2019-02-17T12:10:14.691Z,54.00
2019-02-17T12:12:43.109Z,53.80
2019-02-17T12:15:13.249Z,52.30
2019-02-17T12:17:41.665Z,52.40
2019-02-17T12:20:36.719Z,51.60
2019-02-17T12:23:12.653Z,51.50
2019-02-17T12:25:45.437Z,51.00
2019-02-17T12:28:15.497Z,51.60
2019-02-17T12:30:45.572Z,51.30
2019-02-17T12:33:19.136Z,50.70
2019-02-17T12:35:44.128Z,50.00
2019-02-17T12:38:12.527Z,50.60
2019-02-17T12:40:40.938Z,49.90
2019-02-17T12:43:09.347Z,49.10
2019-02-17T12:45:37.773Z,48.90
2019-02-17T12:48:06.185Z,49.20
2019-02-17T12:50:34.601Z,48.90
2019-02-17T12:53:02.993Z,48.30
2019-02-17T12:55:31.429Z,49.00
2019-02-17T12:57:59.835Z,47.50
2019-02-17T13:00:28.237Z,47.10
2019-02-17T13:02:56.629Z,47.20
2019-02-17T13:05:25.061Z,47.10
2019-02-17T13:07:53.463Z,46.40
2019-02-17T13:10:21.890Z,46.00
2019-02-17T13:12:50.281Z,46.20
2019-02-17T13:15:18.780Z,46.50
2019-02-17T13:17:47.169Z,46.40
2019-02-17T13:20:15.955Z,46.40
2019-02-17T13:22:44.365Z,45.40
2019-02-17T13:25:14.833Z,45.00
2019-02-17T13:27:43.248Z,45.10
2019-02-17T13:30:17.440Z,44.60
2019-02-17T13:32:45.834Z,45.00
2019-02-17T13:35:14.255Z,44.30
2019-02-17T13:37:42.659Z,44.10
2019-02-17T13:40:13.230Z,44.10
2019-02-17T13:42:41.627Z,43.60
2019-02-17T13:45:17.279Z,43.60
2019-02-17T13:47:45.699Z,43.70
2019-02-17T13:50:16.026Z,43.50
2019-02-17T13:52:44.425Z,43.00
2019-02-17T13:55:13.183Z,43.10
2019-02-17T13:57:41.750Z,42.50
2019-02-17T14:00:18.219Z,42.00
2019-02-17T14:02:46.622Z,41.80
2019-02-17T14:05:15.119Z,41.00
2019-02-17T14:07:43.579Z,41.40
2019-02-17T14:10:14.902Z,41.40
2019-02-17T14:12:43.372Z,40.70
2019-02-17T14:15:17.240Z,40.60
2019-02-17T14:17:45.652Z,40.40
2019-02-17T14:20:14.381Z,40.10
2019-02-17T14:22:42.807Z,40.60
2019-02-17T14:25:11.525Z,39.80
2019-02-17T14:27:40.287Z,39.70
2019-02-17T14:30:12.088Z,39.70
2019-02-17T14:32:40.484Z,38.80
2019-02-17T14:35:08.958Z,38.10
2019-02-17T14:37:37.345Z,38.20
2019-02-17T14:40:13.833Z,37.70
2019-02-17T14:42:42.250Z,37.20
2019-02-17T14:45:14.787Z,36.60
2019-02-17T14:47:43.194Z,37.30
2019-02-17T14:50:12.130Z,36.10
2019-02-17T14:52:40.548Z,36.40
2019-02-17T14:55:10.251Z,37.10
2019-02-17T14:57:38.661Z,36.50
2019-02-17T15:00:10.139Z,35.80
2019-02-17T15:02:38.556Z,35.20
2019-02-17T15:05:08.888Z,35.30
2019-02-17T15:07:37.311Z,34.90
2019-02-17T15:10:10.351Z,35.20
2019-02-17T15:12:38.860Z,34.40
2019-02-17T15:15:12.229Z,36.00
2019-02-17T15:17:40.650Z,35.40
2019-02-17T15:20:12.087Z,35.10
2019-02-17T15:22:40.482Z,35.40
2019-02-17T15:25:11.020Z,36.20
2019-02-17T15:27:39.431Z,35.90
2019-02-17T15:30:13.821Z,35.50
2019-02-17T15:32:42.305Z,34.70
2019-02-17T15:35:10.760Z,34.90
2019-02-17T15:37:39.167Z,35.50
2019-02-17T15:40:12.255Z,34.90
2019-02-17T15:42:42.909Z,35.40
2019-02-17T15:45:13.093Z,36.10
2019-02-17T15:47:41.532Z,35.70
2019-02-17T15:50:12.100Z,35.80
2019-02-17T15:52:40.522Z,35.40
2019-02-17T15:55:13.801Z,35.50
2019-02-17T15:57:42.209Z,35.20
2019-02-17T16:00:18.442Z,37.20
2019-02-17T16:02:46.860Z,36.00
2019-02-17T16:05:15.731Z,34.00
2019-02-17T16:07:44.144Z,35.20
2019-02-17T16:10:15.633Z,34.70
2019-02-17T16:12:44.056Z,35.80
2019-02-17T16:15:17.951Z,39.20
2019-02-17T16:17:46.360Z,39.50
2019-02-17T16:20:14.931Z,39.80
2019-02-17T16:22:43.357Z,40.80
2019-02-17T16:25:12.378Z,41.20
2019-02-17T16:27:40.813Z,40.90
2019-02-17T16:30:16.557Z,41.00
2019-02-17T16:32:44.961Z,41.30
2019-02-17T16:35:13.405Z,42.40
2019-02-17T16:37:41.844Z,43.50
2019-02-17T16:40:17.093Z,44.30
2019-02-17T16:42:45.577Z,45.10
2019-02-17T16:45:16.966Z,45.90
2019-02-17T16:47:45.452Z,46.60
2019-02-17T16:50:28.013Z,47.50
2019-02-17T16:52:56.418Z,47.20
2019-02-17T16:55:24.887Z,47.90
2019-02-17T16:57:53.367Z,48.50
2019-02-17T17:00:23.166Z,48.90
2019-02-17T17:02:52.819Z,49.00
2019-02-17T17:05:22.264Z,49.20
2019-02-17T17:07:50.744Z,48.70
2019-02-17T17:10:19.207Z,49.70
2019-02-17T17:12:47.634Z,50.00
2019-02-17T17:15:16.969Z,50.00
2019-02-17T17:17:45.526Z,50.30
2019-02-17T17:20:16.161Z,50.80
2019-02-17T17:22:44.661Z,50.60
2019-02-17T17:25:13.119Z,51.70
2019-02-17T17:27:41.587Z,51.10
2019-02-17T17:30:14.391Z,50.80
2019-02-17T17:32:42.878Z,50.70
2019-02-17T17:35:11.354Z,51.30
2019-02-17T17:37:39.986Z,52.00
2019-02-17T17:40:15.517Z,51.60
2019-02-17T17:42:44.001Z,52.10
2019-02-17T17:45:16.857Z,52.90
2019-02-17T17:47:45.358Z,54.30
2019-02-17T17:50:15.168Z,54.00
2019-02-17T17:52:43.641Z,53.50
2019-02-17T17:55:13.315Z,54.50
2019-02-17T17:57:41.855Z,55.20
2019-02-17T18:00:21.731Z,56.30
2019-02-17T18:02:50.357Z,56.40
2019-02-17T18:05:18.952Z,57.00
2019-02-17T18:07:47.580Z,57.30
2019-02-17T18:10:17.191Z,58.00
2019-02-17T18:12:45.736Z,58.40
2019-02-17T18:15:16.386Z,58.40
2019-02-17T18:17:53.790Z,58.40
2019-02-17T18:20:15.084Z,59.00
2019-02-17T18:22:43.529Z,59.20
2019-02-17T18:25:13.769Z,59.80
2019-02-17T18:27:42.171Z,59.60
2019-02-17T18:30:13.790Z,61.10
2019-02-17T18:32:42.174Z,61.40
2019-02-17T18:35:19.087Z,61.00
2019-02-17T18:37:40.927Z,61.80
2019-02-17T18:40:11.763Z,61.60
2019-02-17T18:42:40.173Z,62.30
2019-02-17T18:45:11.197Z,63.10
2019-02-17T18:47:39.593Z,63.80
2019-02-17T18:50:20.363Z,64.80
2019-02-17T18:52:48.773Z,65.60
2019-02-17T18:55:17.279Z,66.10
2019-02-17T18:57:49.927Z,66.70
2019-02-17T19:00:26.405Z,67.60
2019-02-17T19:02:54.801Z,68.20
2019-02-17T19:05:31.495Z,69.10
2019-02-17T19:07:53.419Z,70.00
2019-02-17T19:10:21.834Z,70.80
2019-02-17T19:12:50.538Z,71.80
2019-02-17T19:15:20.255Z,72.60
2019-02-17T19:17:48.676Z,74.10
2019-02-17T19:20:32.123Z,74.80
2019-02-17T19:23:00.529Z,75.70
2019-02-17T19:25:28.949Z,77.10
2019-02-17T19:27:57.343Z,76.50
2019-02-17T19:30:25.768Z,77.40
2019-02-17T19:32:55.111Z,78.90
2019-02-17T19:35:23.546Z,80.40
2019-02-17T19:37:51.959Z,80.80
2019-02-17T19:40:20.381Z,82.30
2019-02-17T19:42:48.780Z,81.90
2019-02-17T19:45:18.251Z,81.20
2019-02-17T19:47:47.022Z,82.10
2019-02-17T19:50:16.320Z,84.00
2019-02-17T19:52:44.973Z,86.30
2019-02-17T19:55:14.262Z,88.00
2019-02-17T19:57:42.782Z,88.40
2019-02-17T20:00:15.808Z,88.50
2019-02-17T20:03:02.374Z,87.80
2019-02-17T20:05:52.255Z,88.10
2019-02-17T20:08:20.817Z,89.40
2019-02-17T20:10:49.228Z,90.60
2019-02-17T20:13:17.637Z,91.00
2019-02-17T20:15:46.059Z,91.40
2019-02-17T20:18:14.477Z,91.70
2019-02-17T20:20:42.898Z,92.00
2019-02-17T20:23:11.349Z,92.50
2019-02-17T20:25:39.845Z,92.50
2019-02-17T20:28:08.256Z,92.60
2019-02-17T20:30:36.657Z,93.20
2019-02-17T20:33:05.131Z,93.00
2019-02-17T20:35:33.541Z,93.60
2019-02-17T20:38:01.952Z,93.90
2019-02-17T20:40:30.364Z,94.30
2019-02-17T20:42:58.770Z,94.40
2019-02-17T20:45:27.186Z,94.50
2019-02-17T20:47:55.591Z,94.70
2019-02-17T20:50:24.260Z,94.60
2019-02-17T20:52:52.646Z,95.30
2019-02-17T20:55:21.084Z,95.30
2019-02-17T20:57:49.483Z,95.30
2019-02-17T21:00:22.605Z,95.20
2019-02-17T21:02:50.895Z,95.40
2019-02-17T21:05:19.316Z,95.30
2019-02-17T21:07:47.725Z,95.40
2019-02-17T21:10:16.200Z,95.60
2019-02-17T21:12:44.599Z,96.20
2019-02-17T21:15:14.737Z,96.40
2019-02-17T21:17:43.133Z,96.40
2019-02-17T21:20:11.901Z,96.60
2019-02-17T21:22:40.309Z,96.50
2019-02-17T21:25:12.924Z,96.80
2019-02-17T21:27:41.323Z,97.00
2019-02-17T21:30:14.839Z,97.50
2019-02-17T21:32:43.231Z,97.80
2019-02-17T21:35:13.487Z,97.90
2019-02-17T21:37:41.892Z,97.90
2019-02-17T21:40:11.730Z,97.90
2019-02-17T21:42:40.137Z,98.10
2019-02-17T21:45:14.205Z,98.50
2019-02-17T21:47:42.634Z,98.80
2019-02-17T21:50:13.150Z,99.00
2019-02-17T21:52:42.084Z,99.40
2019-02-17T21:55:14.651Z,99.40
2019-02-17T21:57:43.046Z,99.70
2019-02-17T22:00:17.324Z,99.80
2019-02-17T22:02:45.736Z,99.90
2019-02-17T22:05:14.379Z,99.90
2019-02-17T22:07:42.887Z,99.90
2019-02-17T22:10:19.350Z,99.90
2019-02-17T22:12:47.781Z,99.90
2019-02-17T22:15:18.202Z,99.90
2019-02-17T22:17:46.606Z,99.90
2019-02-17T22:20:15.082Z,99.90
2019-02-17T22:22:43.498Z,99.90
2019-02-17T22:25:13.505Z,99.90
2019-02-17T22:27:41.918Z,99.90
2019-02-17T22:30:14.802Z,99.90
2019-02-17T22:32:43.291Z,99.90
2019-02-17T22:35:11.813Z,99.90
2019-02-17T22:37:40.218Z,99.90
2019-02-17T22:40:14.312Z,99.90
2019-02-17T22:42:42.716Z,99.90
2019-02-17T22:45:12.457Z,99.90
2019-02-17T22:47:40.891Z,99.90
2019-02-17T22:50:11.219Z,99.90
2019-02-17T22:52:39.631Z,99.90
2019-02-17T22:55:10.274Z,99.90
2019-02-17T22:57:38.690Z,99.90
2019-02-17T23:00:29.468Z,99.90
2019-02-17T23:02:58.024Z,99.90
2019-02-17T23:05:26.415Z,99.90
2019-02-17T23:07:54.835Z,99.90
2019-02-17T23:10:23.219Z,99.90
2019-02-17T23:12:51.628Z,99.90
2019-02-17T23:15:20.032Z,99.90
2019-02-17T23:17:48.437Z,99.90
2019-02-17T23:20:16.834Z,99.90
2019-02-17T23:22:45.243Z,99.90
2019-02-17T23:25:13.783Z,99.90
2019-02-17T23:27:42.185Z,99.90
2019-02-17T23:30:11.434Z,99.90
2019-02-17T23:32:39.833Z,99.90
2019-02-17T23:35:08.302Z,99.90
2019-02-17T23:37:36.723Z,99.90
2019-02-17T23:40:10.455Z,99.90
2019-02-17T23:42:39.077Z,99.90
2019-02-17T23:45:10.577Z,99.90
2019-02-17T23:47:39.008Z,99.90
2019-02-17T23:50:09.643Z,99.90
2019-02-17T23:52:38.314Z,99.90
2019-02-17T23:55:07.851Z,99.90
2019-02-17T23:57:36.413Z,99.90
